createdAt,value
2022-09-17T00:00:46.710Z,54.42
2022-09-17T00:03:28.980Z,54.58
2022-09-17T00:06:01.746Z,54.59
2022-09-17T00:08:31.291Z,54.72
2022-09-17T00:11:21.770Z,54.78
2022-09-17T00:13:52.703Z,54.98
2022-09-17T00:16:31.843Z,54.97
2022-09-17T00:19:03.115Z,55.14
2022-09-17T00:21:33.558Z,55.10
2022-09-17T00:24:05.812Z,55.29
2022-09-17T00:26:35.580Z,55.27
2022-09-17T00:29:06.109Z,55.48
2022-09-17T00:31:36.140Z,55.50
2022-09-17T00:34:07.165Z,55.56
2022-09-17T00:36:38.273Z,55.52
2022-09-17T00:39:11.791Z,55.55
2022-09-17T00:41:40.626Z,55.72
2022-09-17T00:44:40.271Z,55.91
2022-09-17T00:47:42.492Z,56.02
2022-09-17T00:50:34.969Z,56.05
2022-09-17T00:53:11.356Z,55.97
2022-09-17T00:55:42.893Z,56.19
2022-09-17T00:58:14.936Z,56.15
2022-09-17T01:00:43.947Z,56.21
2022-09-17T01:03:13.144Z,56.21
2022-09-17T01:05:54.929Z,56.38
2022-09-17T01:08:38.063Z,56.44
2022-09-17T01:11:33.335Z,56.53
2022-09-17T01:14:27.322Z,56.56
2022-09-17T01:17:08.365Z,56.55
2022-09-17T01:19:59.573Z,56.71
2022-09-17T01:22:55.486Z,56.64
2022-09-17T01:25:51.854Z,56.71
2022-09-17T01:28:37.354Z,56.88
2022-09-17T01:31:06.539Z,56.84
2022-09-17T01:33:53.586Z,56.80
2022-09-17T01:36:50.586Z,56.97
2022-09-17T01:39:30.396Z,57.01
2022-09-17T01:42:11.667Z,57.14
2022-09-17T01:45:04.879Z,57.10
2022-09-17T01:47:36.209Z,57.24
2022-09-17T01:50:17.736Z,57.23
2022-09-17T01:52:50.645Z,57.47
2022-09-17T01:55:21.578Z,57.48
2022-09-17T01:58:08.791Z,57.59
2022-09-17T02:00:42.776Z,57.75
2022-09-17T02:03:40.614Z,57.57
2022-09-17T02:06:16.720Z,57.90
2022-09-17T02:09:02.290Z,57.95
2022-09-17T02:11:37.507Z,57.83
2022-09-17T02:14:14.703Z,58.10
2022-09-17T02:16:52.574Z,58.05
2022-09-17T02:19:27.088Z,57.94
2022-09-17T02:22:09.417Z,58.18
2022-09-17T02:24:53.195Z,58.26
2022-09-17T02:27:26.453Z,58.31
2022-09-17T02:29:55.302Z,58.35
2022-09-17T02:32:25.458Z,58.35
2022-09-17T02:34:55.694Z,58.50
2022-09-17T02:37:24.494Z,58.59
2022-09-17T02:39:53.708Z,58.60
2022-09-17T02:42:48.486Z,58.82
2022-09-17T02:45:40.001Z,58.84
2022-09-17T02:48:18.195Z,58.87
2022-09-17T02:51:19.582Z,58.92
2022-09-17T02:54:23.905Z,59.11
2022-09-17T02:57:17.655Z,58.93
2022-09-17T03:00:07.986Z,59.11
2022-09-17T03:02:47.677Z,59.23
2022-09-17T03:05:20.597Z,59.18
2022-09-17T03:07:50.147Z,59.47
2022-09-17T03:10:20.327Z,59.29
2022-09-17T03:12:52.082Z,59.50
2022-09-17T03:15:22.192Z,59.20
2022-09-17T03:17:53.564Z,59.53
2022-09-17T03:20:22.938Z,59.39
2022-09-17T03:22:54.729Z,59.55
2022-09-17T03:25:23.877Z,59.72
2022-09-17T03:27:55.476Z,59.80
2022-09-17T03:30:25.069Z,59.75
2022-09-17T03:32:56.133Z,59.53
2022-09-17T03:35:25.546Z,59.78
2022-09-17T03:37:55.813Z,59.75
2022-09-17T03:40:25.058Z,59.96
2022-09-17T03:42:53.991Z,59.83
2022-09-17T03:45:22.871Z,59.96
2022-09-17T03:47:56.281Z,60.09
2022-09-17T03:50:25.935Z,60.15
2022-09-17T03:52:54.789Z,60.15
2022-09-17T03:55:27.455Z,60.26
2022-09-17T03:57:56.944Z,60.36
2022-09-17T04:00:26.000Z,60.15
2022-09-17T04:02:54.764Z,60.31
2022-09-17T04:05:24.176Z,60.47
2022-09-17T04:07:53.034Z,60.61
2022-09-17T04:10:24.868Z,60.55
2022-09-17T04:12:54.850Z,60.52
2022-09-17T04:15:23.605Z,60.87
2022-09-17T04:17:58.143Z,60.78
2022-09-17T04:20:27.694Z,60.77
2022-09-17T04:22:59.162Z,60.81
2022-09-17T04:25:28.085Z,60.97
2022-09-17T04:27:57.157Z,60.92
2022-09-17T04:30:26.272Z,61.04
2022-09-17T04:32:55.236Z,61.33
2022-09-17T04:35:24.757Z,61.31
2022-09-17T04:37:58.304Z,61.35
2022-09-17T04:40:28.410Z,61.50
2022-09-17T04:43:03.295Z,61.43
2022-09-17T04:45:33.888Z,61.74
2022-09-17T04:48:04.987Z,61.75
2022-09-17T04:50:34.321Z,61.56
2022-09-17T04:53:06.784Z,61.76
2022-09-17T04:55:36.090Z,61.96
2022-09-17T04:58:04.980Z,61.93
2022-09-17T05:00:35.759Z,62.06
2022-09-17T05:03:04.809Z,62.13
2022-09-17T05:05:34.895Z,62.06
2022-09-17T05:08:07.104Z,62.03
2022-09-17T05:11:08.257Z,62.37
2022-09-17T05:13:39.245Z,62.18
2022-09-17T05:16:10.218Z,62.07
2022-09-17T05:18:39.214Z,62.06
2022-09-17T05:21:08.991Z,62.38
2022-09-17T05:23:38.862Z,62.60
2022-09-17T05:26:07.661Z,62.59
2022-09-17T05:28:36.613Z,62.39
2022-09-17T05:31:05.784Z,62.69
2022-09-17T05:33:35.573Z,62.49
2022-09-17T05:36:05.781Z,62.58
2022-09-17T05:38:35.039Z,62.67
2022-09-17T05:41:06.871Z,62.74
2022-09-17T05:43:35.880Z,62.79
2022-09-17T05:46:06.395Z,62.73
2022-09-17T05:48:36.481Z,62.78
2022-09-17T05:51:06.277Z,62.79
2022-09-17T05:53:35.418Z,62.82
2022-09-17T05:56:04.449Z,62.85
2022-09-17T05:58:34.917Z,62.83
2022-09-17T06:01:04.242Z,62.93
2022-09-17T06:03:33.253Z,63.05
2022-09-17T06:06:03.091Z,62.96
2022-09-17T06:08:37.278Z,62.98
2022-09-17T06:11:08.738Z,63.01
2022-09-17T06:13:39.147Z,62.95
2022-09-17T06:16:08.314Z,62.94
2022-09-17T06:18:37.436Z,62.80
2022-09-17T06:21:06.270Z,62.57
2022-09-17T06:23:35.942Z,62.52
2022-09-17T06:26:07.023Z,62.46
2022-09-17T06:28:41.503Z,62.20
2022-09-17T06:31:13.916Z,62.12
2022-09-17T06:33:44.415Z,62.07
2022-09-17T06:36:14.607Z,62.32
2022-09-17T06:38:47.217Z,62.06
2022-09-17T06:41:18.479Z,62.15
2022-09-17T06:43:47.298Z,62.07
2022-09-17T06:46:17.963Z,61.77
2022-09-17T06:48:50.492Z,61.45
2022-09-17T06:51:25.042Z,61.18
2022-09-17T06:53:54.513Z,61.25
2022-09-17T06:56:23.971Z,61.24
2022-09-17T06:58:55.116Z,61.16
2022-09-17T07:01:26.165Z,61.27
2022-09-17T07:03:58.454Z,61.24
2022-09-17T07:06:27.314Z,59.78
2022-09-17T07:08:59.470Z,58.50
2022-09-17T07:11:31.934Z,57.30
2022-09-17T07:14:01.125Z,57.43
2022-09-17T07:16:36.492Z,57.23
2022-09-17T07:19:05.689Z,57.82
2022-09-17T07:21:34.449Z,58.05
2022-09-17T07:24:04.745Z,58.22
2022-09-17T07:26:33.659Z,58.08
2022-09-17T07:29:02.453Z,58.36
2022-09-17T07:31:31.791Z,57.97
2022-09-17T07:34:01.933Z,57.35
2022-09-17T07:36:30.762Z,57.48
2022-09-17T07:38:59.707Z,57.29
2022-09-17T07:41:29.290Z,56.65
2022-09-17T07:43:58.641Z,55.98
2022-09-17T07:46:28.755Z,55.09
2022-09-17T07:48:57.637Z,56.03
2022-09-17T07:51:29.040Z,55.95
2022-09-17T07:54:00.394Z,56.52
2022-09-17T07:56:30.058Z,57.37
2022-09-17T07:58:58.978Z,57.06
2022-09-17T08:01:28.238Z,58.24
2022-09-17T08:03:57.175Z,58.09
2022-09-17T08:06:28.573Z,57.91
2022-09-17T08:09:02.169Z,56.48
2022-09-17T08:11:52.192Z,54.33
2022-09-17T08:14:23.569Z,54.60
2022-09-17T08:16:56.409Z,55.31
2022-09-17T08:19:25.870Z,55.88
2022-09-17T08:21:56.354Z,57.22
2022-09-17T08:24:26.847Z,57.19
2022-09-17T08:26:57.741Z,57.53
2022-09-17T08:29:30.980Z,57.68
2022-09-17T08:32:04.354Z,57.58
2022-09-17T08:34:34.145Z,58.09
2022-09-17T08:37:03.615Z,57.61
2022-09-17T08:39:32.848Z,57.91
2022-09-17T08:42:10.015Z,57.89
2022-09-17T08:44:46.518Z,57.62
2022-09-17T08:47:44.106Z,57.67
2022-09-17T08:50:19.782Z,56.85
2022-09-17T08:53:15.633Z,56.67
2022-09-17T08:55:52.182Z,56.70
2022-09-17T08:58:49.210Z,56.97
2022-09-17T09:01:54.936Z,56.93
2022-09-17T09:04:29.888Z,57.63
2022-09-17T09:07:08.437Z,57.99
2022-09-17T09:10:11.408Z,57.96
2022-09-17T09:12:43.188Z,58.21
2022-09-17T09:15:38.759Z,58.18
2022-09-17T09:18:23.085Z,58.02
2022-09-17T09:20:55.975Z,58.13
2022-09-17T09:23:44.433Z,58.17
2022-09-17T09:26:25.018Z,58.22
2022-09-17T09:29:09.093Z,58.02
2022-09-17T09:31:47.789Z,58.45
2022-09-17T09:34:17.578Z,58.53
2022-09-17T09:36:46.978Z,58.34
2022-09-17T09:39:26.417Z,58.46
2022-09-17T09:42:16.593Z,58.52
2022-09-17T09:44:48.546Z,58.58
2022-09-17T09:48:11.447Z,58.51
2022-09-17T09:51:09.961Z,58.75
2022-09-17T09:54:14.004Z,58.62
2022-09-17T09:56:57.250Z,58.67
2022-09-17T09:59:29.462Z,58.84
2022-09-17T10:02:02.296Z,59.01
2022-09-17T10:04:33.254Z,58.96
2022-09-17T10:07:10.995Z,58.73
2022-09-17T10:14:30.157Z,58.81
2022-09-17T10:17:27.135Z,58.66
2022-09-17T10:20:00.004Z,58.92
2022-09-17T10:22:35.392Z,58.99
2022-09-17T10:25:07.475Z,58.92
2022-09-17T10:27:37.329Z,59.10
2022-09-17T10:30:29.363Z,59.32
2022-09-17T10:33:18.306Z,59.26
2022-09-17T10:36:05.757Z,59.66
2022-09-17T10:38:43.131Z,59.48
2022-09-17T10:41:16.769Z,59.46
2022-09-17T10:43:46.608Z,59.68
2022-09-17T10:46:31.043Z,59.59
2022-09-17T10:49:29.962Z,59.81
2022-09-17T10:52:24.163Z,59.80
2022-09-17T10:55:28.252Z,60.11
2022-09-17T10:58:05.454Z,60.27
2022-09-17T11:01:23.518Z,60.28
2022-09-17T11:04:04.962Z,59.93
2022-09-17T11:06:43.742Z,60.04
2022-09-17T11:09:56.552Z,60.07
2022-09-17T11:12:42.781Z,60.27
2022-09-17T11:15:32.338Z,60.24
2022-09-17T11:18:23.374Z,60.12
2022-09-17T11:21:17.100Z,60.24
2022-09-17T11:24:19.215Z,60.26
2022-09-17T11:27:16.036Z,60.18
2022-09-17T11:30:05.314Z,60.23
2022-09-17T11:32:57.060Z,60.27
2022-09-17T11:35:35.760Z,60.13
2022-09-17T11:38:23.278Z,60.22
2022-09-17T11:41:21.607Z,60.39
2022-09-17T11:43:54.083Z,60.24
2022-09-17T11:46:33.107Z,60.31
2022-09-17T11:49:04.372Z,60.17
2022-09-17T11:51:40.015Z,60.51
2022-09-17T11:54:34.162Z,60.84
2022-09-17T11:57:17.055Z,60.10
2022-09-17T12:00:22.057Z,59.56
2022-09-17T12:03:02.126Z,59.02
2022-09-17T12:05:44.067Z,59.05
2022-09-17T12:08:20.176Z,58.72
2022-09-17T12:11:13.122Z,58.66
2022-09-17T12:13:51.897Z,58.44
2022-09-17T12:16:37.271Z,58.49
2022-09-17T12:19:13.454Z,58.36
2022-09-17T12:21:57.830Z,58.12
2022-09-17T12:24:32.517Z,58.26
2022-09-17T12:27:24.386Z,58.39
2022-09-17T12:30:05.589Z,58.80
2022-09-17T12:33:29.478Z,58.87
2022-09-17T12:36:40.705Z,58.90
2022-09-17T12:39:31.063Z,59.07
2022-09-17T12:42:20.050Z,58.99
2022-09-17T12:45:03.873Z,58.82
2022-09-17T12:47:53.050Z,58.84
2022-09-17T12:50:32.775Z,59.00
2022-09-17T12:53:16.861Z,58.96
2022-09-17T12:56:25.611Z,58.86
2022-09-17T12:59:06.487Z,58.95
2022-09-17T13:02:06.996Z,58.94
2022-09-17T13:05:01.478Z,58.87
2022-09-17T13:07:30.970Z,58.79
2022-09-17T13:14:34.294Z,59.00
2022-09-17T13:17:11.899Z,59.00
2022-09-17T13:20:02.945Z,58.87
2022-09-17T13:22:35.112Z,58.93
2022-09-17T13:25:13.295Z,58.88
2022-09-17T13:27:44.886Z,58.93
2022-09-17T13:30:18.060Z,58.96
2022-09-17T13:32:50.163Z,59.17
2022-09-17T13:35:42.717Z,59.08
2022-09-17T13:38:13.262Z,58.65
2022-09-17T13:40:43.466Z,58.21
2022-09-17T13:43:15.398Z,58.49
2022-09-17T13:46:01.583Z,58.18
2022-09-17T13:48:35.573Z,58.46
2022-09-17T13:51:32.333Z,58.43
2022-09-17T13:54:05.614Z,58.17
2022-09-17T13:56:44.706Z,58.15
2022-09-17T13:59:17.626Z,58.09
2022-09-17T14:02:30.057Z,57.86
2022-09-17T14:05:38.758Z,57.79
2022-09-17T14:08:15.508Z,57.79
2022-09-17T14:11:21.883Z,57.52
2022-09-17T14:13:58.919Z,57.16
2022-09-17T14:16:51.721Z,57.13
2022-09-17T14:19:25.890Z,56.79
2022-09-17T14:22:02.342Z,56.94
2022-09-17T14:24:43.373Z,57.15
2022-09-17T14:27:19.588Z,57.01
2022-09-17T14:30:24.091Z,56.84
2022-09-17T14:33:02.066Z,57.03
2022-09-17T14:36:02.109Z,57.11
2022-09-17T14:38:44.995Z,56.64
2022-09-17T14:41:18.757Z,56.97
2022-09-17T14:44:11.385Z,56.95
2022-09-17T14:46:55.604Z,56.88
2022-09-17T14:49:29.007Z,56.35
2022-09-17T14:51:59.691Z,56.59
2022-09-17T14:54:35.827Z,56.86
2022-09-17T14:57:27.349Z,56.21
2022-09-17T14:59:59.681Z,55.97
2022-09-17T15:02:32.124Z,56.07
2022-09-17T15:05:13.143Z,55.95
2022-09-17T15:07:45.109Z,55.99
2022-09-17T15:10:22.540Z,56.10
2022-09-17T15:12:55.688Z,56.29
2022-09-17T15:15:27.243Z,55.95
2022-09-17T15:17:58.705Z,55.79
2022-09-17T15:20:32.479Z,55.75
2022-09-17T15:23:08.350Z,55.94
2022-09-17T15:25:39.500Z,55.96
2022-09-17T15:28:43.795Z,56.04
2022-09-17T15:31:19.263Z,56.13
2022-09-17T15:33:51.292Z,56.20
2022-09-17T15:36:24.464Z,56.24
2022-09-17T15:38:55.327Z,56.21
2022-09-17T15:41:40.085Z,56.31
2022-09-17T15:44:36.849Z,56.32
2022-09-17T15:47:38.778Z,56.42
2022-09-17T15:50:20.702Z,56.27
2022-09-17T15:52:58.552Z,56.30
2022-09-17T15:55:43.213Z,56.37
2022-09-17T15:58:44.209Z,56.54
2022-09-17T16:01:17.083Z,56.63
2022-09-17T16:03:48.086Z,56.86
2022-09-17T16:06:20.361Z,57.59
2022-09-17T16:08:53.990Z,57.88
2022-09-17T16:11:27.260Z,58.26
2022-09-17T16:13:59.229Z,58.05
2022-09-17T16:16:36.192Z,57.87
2022-09-17T16:19:08.250Z,57.96
2022-09-17T16:21:37.176Z,58.08
2022-09-17T16:24:06.216Z,58.02
2022-09-17T16:26:36.513Z,58.23
2022-09-17T16:29:09.786Z,58.24
2022-09-17T16:31:41.336Z,58.04
2022-09-17T16:34:10.305Z,57.99
2022-09-17T16:36:42.237Z,58.05
2022-09-17T16:39:12.166Z,58.07
2022-09-17T16:41:41.104Z,58.33
2022-09-17T16:44:11.336Z,58.43
2022-09-17T16:46:43.645Z,58.66
2022-09-17T16:49:16.595Z,58.72
2022-09-17T16:51:45.478Z,59.05
2022-09-17T16:54:15.022Z,59.01
2022-09-17T16:56:45.573Z,59.12
2022-09-17T16:59:15.185Z,59.35
2022-09-17T17:01:45.563Z,59.26
2022-09-17T17:04:17.033Z,59.50
2022-09-17T17:06:47.850Z,59.53
2022-09-17T17:09:45.067Z,59.75
2022-09-17T17:12:14.346Z,59.96
2022-09-17T17:14:44.986Z,59.98
2022-09-17T17:17:15.611Z,60.15
2022-09-17T17:19:47.043Z,60.21
2022-09-17T17:22:16.498Z,60.10
2022-09-17T17:24:45.303Z,60.34
2022-09-17T17:27:16.214Z,60.37
2022-09-17T17:29:45.592Z,60.29
2022-09-17T17:32:14.734Z,60.40
2022-09-17T17:34:44.150Z,60.52
2022-09-17T17:37:14.683Z,60.70
2022-09-17T17:39:45.263Z,60.60
2022-09-17T17:42:15.172Z,60.89
2022-09-17T17:44:48.192Z,61.00
2022-09-17T17:47:18.244Z,61.15
2022-09-17T17:49:49.433Z,61.54
2022-09-17T17:52:20.220Z,61.46
2022-09-17T17:54:49.343Z,61.42
2022-09-17T17:57:18.612Z,61.59
2022-09-17T17:59:48.189Z,61.64
2022-09-17T18:02:18.844Z,61.72
2022-09-17T18:04:48.900Z,61.82
2022-09-17T18:07:19.306Z,61.97
2022-09-17T18:10:20.164Z,62.11
2022-09-17T18:12:51.301Z,62.25
2022-09-17T18:15:21.601Z,62.31
2022-09-17T18:17:54.002Z,62.38
2022-09-17T18:20:24.638Z,62.24
2022-09-17T18:22:54.877Z,62.39
2022-09-17T18:25:23.814Z,62.52
2022-09-17T18:27:55.001Z,62.52
2022-09-17T18:30:23.960Z,62.58
2022-09-17T18:32:55.186Z,62.73
2022-09-17T18:35:26.276Z,62.85
2022-09-17T18:37:56.778Z,62.56
2022-09-17T18:40:28.648Z,62.79
2022-09-17T18:43:02.923Z,63.07
2022-09-17T18:45:33.348Z,63.16
2022-09-17T18:48:05.804Z,63.06
2022-09-17T18:50:36.263Z,63.49
2022-09-17T18:53:05.303Z,63.64
2022-09-17T18:55:36.233Z,63.55
2022-09-17T18:58:08.555Z,63.40
2022-09-17T19:00:41.489Z,63.62
2022-09-17T19:03:12.202Z,63.82
2022-09-17T19:05:44.128Z,63.75
2022-09-17T19:08:13.982Z,63.68
2022-09-17T19:10:51.433Z,63.50
2022-09-17T19:13:20.752Z,63.76
2022-09-17T19:15:52.097Z,63.81
2022-09-17T19:18:21.907Z,63.36
2022-09-17T19:20:52.823Z,63.54
2022-09-17T19:23:22.852Z,63.60
2022-09-17T19:25:52.434Z,63.70
2022-09-17T19:28:22.347Z,64.12
2022-09-17T19:30:52.000Z,64.09
2022-09-17T19:33:22.319Z,63.96
2022-09-17T19:35:51.459Z,64.11
2022-09-17T19:38:21.330Z,64.36
2022-09-17T19:41:03.742Z,64.43
2022-09-17T19:43:37.533Z,64.53
2022-09-17T19:46:19.375Z,64.55
2022-09-17T19:48:51.216Z,64.65
2022-09-17T19:51:23.006Z,64.48
2022-09-17T19:53:54.410Z,64.72
2022-09-17T19:56:27.227Z,64.75
2022-09-17T19:58:57.341Z,64.68
2022-09-17T20:01:29.914Z,64.77
2022-09-17T20:04:00.462Z,64.97
2022-09-17T20:06:33.819Z,65.04
2022-09-17T20:09:04.387Z,65.28
2022-09-17T20:12:01.021Z,65.29
2022-09-17T20:14:30.757Z,65.25
2022-09-17T20:17:01.075Z,65.18
2022-09-17T20:19:31.214Z,65.16
2022-09-17T20:22:02.905Z,65.29
2022-09-17T20:24:32.372Z,65.40
2022-09-17T20:27:01.930Z,65.55
2022-09-17T20:29:34.120Z,65.40
2022-09-17T20:32:03.006Z,65.48
2022-09-17T20:34:32.179Z,65.70
2022-09-17T20:37:12.711Z,65.72
2022-09-17T20:39:44.825Z,65.92
2022-09-17T20:42:16.301Z,65.83
2022-09-17T20:44:45.898Z,65.72
2022-09-17T20:47:16.399Z,65.89
2022-09-17T20:49:46.426Z,65.94
2022-09-17T20:52:21.002Z,66.05
2022-09-17T20:54:51.481Z,65.97
2022-09-17T20:57:22.933Z,65.84
2022-09-17T20:59:58.098Z,66.03
2022-09-17T21:02:29.862Z,65.88
2022-09-17T21:05:00.989Z,66.09
2022-09-17T21:07:33.506Z,66.31
2022-09-17T21:10:06.493Z,66.32
2022-09-17T21:12:36.572Z,66.42
2022-09-17T21:15:07.586Z,66.40
2022-09-17T21:17:36.822Z,66.49
2022-09-17T21:20:07.962Z,66.55
2022-09-17T21:22:38.734Z,66.76
2022-09-17T21:25:09.102Z,66.60
2022-09-17T21:27:39.746Z,66.68
2022-09-17T21:30:12.301Z,66.64
2022-09-17T21:32:42.706Z,66.70
2022-09-17T21:35:11.564Z,67.01
2022-09-17T21:37:43.566Z,66.87
2022-09-17T21:40:14.040Z,66.90
2022-09-17T21:42:43.267Z,66.90
2022-09-17T21:45:13.487Z,66.90
2022-09-17T21:47:44.694Z,67.03
2022-09-17T21:50:13.464Z,67.17
2022-09-17T21:52:43.749Z,67.24
2022-09-17T21:55:14.425Z,67.25
2022-09-17T21:57:45.119Z,67.33
2022-09-17T22:00:16.628Z,67.33
2022-09-17T22:02:52.527Z,67.36
2022-09-17T22:05:21.409Z,67.43
2022-09-17T22:07:51.077Z,67.51
2022-09-17T22:14:53.716Z,67.73
2022-09-17T22:17:23.374Z,67.68
2022-09-17T22:19:54.813Z,67.76
2022-09-17T22:22:24.029Z,67.70
2022-09-17T22:24:54.712Z,67.72
2022-09-17T22:27:23.903Z,67.83
2022-09-17T22:29:52.786Z,67.73
2022-09-17T22:32:23.127Z,67.70
2022-09-17T22:34:53.445Z,67.97
2022-09-17T22:37:29.076Z,68.13
2022-09-17T22:39:58.955Z,68.13
2022-09-17T22:42:27.817Z,68.11
2022-09-17T22:44:59.905Z,67.97
2022-09-17T22:47:29.671Z,67.95
2022-09-17T22:49:59.627Z,68.16
2022-09-17T22:52:28.520Z,68.09
2022-09-17T22:54:57.762Z,68.12
2022-09-17T22:57:28.603Z,68.31
2022-09-17T22:59:57.364Z,68.33
2022-09-17T23:02:27.981Z,68.22
2022-09-17T23:04:58.262Z,68.30
2022-09-17T23:07:27.266Z,68.47
2022-09-17T23:14:29.957Z,68.56
2022-09-17T23:17:00.192Z,68.64
2022-09-17T23:19:31.034Z,68.66
2022-09-17T23:22:00.029Z,68.60
2022-09-17T23:24:29.216Z,68.52
2022-09-17T23:26:58.647Z,68.65
2022-09-17T23:29:27.519Z,68.72
2022-09-17T23:31:56.405Z,68.86
2022-09-17T23:34:26.868Z,69.03
2022-09-17T23:36:55.864Z,68.91
2022-09-17T23:39:26.382Z,68.98
2022-09-17T23:41:57.112Z,68.98
2022-09-17T23:44:29.843Z,68.88
2022-09-17T23:46:58.925Z,68.73
2022-09-17T23:49:29.294Z,68.81
2022-09-17T23:51:59.055Z,68.84
2022-09-17T23:54:29.667Z,68.92
2022-09-17T23:57:00.498Z,68.99
2022-09-17T23:59:30.010Z,68.85
